Time;durP1;ratioP1;P1;durP2;ratioP2;P2;SDS_P1;SDS_P2;PMS_P1;PMS_P2;Temp;Humidity;BMP_temperature;BMP_pressure;BME280_temperature;BME280_humidity;BME280_pressure;Samples;Min_cycle;Max_cycle;Signal;HPM_P1;HPM_P2
2021/06/30 00:01:41;;;;;;;18.48;16.52;;;;;;;25.29;57.71;99299.19;5104360;28;20038;-70
2021/06/30 00:04:08;;;;;;;18.30;15.57;;;;;;;25.28;58.12;99300.44;5093097;28;20032;-70
2021/06/30 00:06:33;;;;;;;25.75;16.48;;;;;;;25.18;57.96;99302.28;5099595;28;20028;-71
2021/06/30 00:08:59;;;;;;;21.08;18.33;;;;;;;25.05;58.39;99293.53;5104902;27;20106;-71
2021/06/30 00:11:26;;;;;;;26.27;18.23;;;;;;;24.94;59.10;99296.59;5103587;28;20504;-70
2021/06/30 00:13:51;;;;;;;19.27;17.25;;;;;;;24.94;59.18;99302.31;5108215;28;20038;-70
2021/06/30 00:16:17;;;;;;;23.98;19.33;;;;;;;25.09;58.19;99304.91;5111447;28;20020;-70
2021/06/30 00:18:43;;;;;;;21.90;16.88;;;;;;;24.91;59.12;99305.25;5104687;28;20092;-68
2021/06/30 00:21:09;;;;;;;23.60;17.63;;;;;;;24.73;60.05;99309.22;5112270;28;20051;-70
2021/06/30 00:23:34;;;;;;;35.78;19.60;;;;;;;24.71;60.11;99305.19;5113735;28;20036;-70
2021/06/30 00:26:00;;;;;;;31.25;17.95;;;;;;;24.62;60.53;99300.03;5109559;28;20026;-70
2021/06/30 00:28:25;;;;;;;24.98;17.90;;;;;;;24.67;60.60;99310.97;5112641;28;20028;-70
2021/06/30 00:30:50;;;;;;;22.92;17.70;;;;;;;24.76;59.88;99307.53;5113720;28;20027;-70
2021/06/30 00:33:18;;;;;;;22.23;17.65;;;;;;;24.62;60.52;99302.91;5113432;28;20035;-70
2021/06/30 00:35:43;;;;;;;24.02;19.00;;;;;;;24.54;60.77;99313.63;5111243;28;20039;-70
2021/06/30 00:38:09;;;;;;;22.48;19.15;;;;;;;24.78;59.90;99311.63;5100885;28;20052;-70
2021/06/30 00:40:34;;;;;;;21.73;17.65;;;;;;;24.68;60.30;99312.59;5094889;28;20077;-70
2021/06/30 00:43:00;;;;;;;23.80;17.67;;;;;;;24.66;60.19;99315.06;5098189;28;20016;-70
2021/06/30 00:45:25;;;;;;;26.10;18.45;;;;;;;24.38;61.37;99320.84;5100007;28;20055;-70
2021/06/30 00:47:51;;;;;;;21.65;19.25;;;;;;;24.55;60.90;99315.25;5091295;28;20048;-71
2021/06/30 00:50:18;;;;;;;19.23;17.27;;;;;;;24.42;60.87;99325.69;5098758;28;20017;-70
2021/06/30 00:52:43;;;;;;;27.48;19.10;;;;;;;24.27;61.44;99316.56;5095869;28;20088;-70
2021/06/30 00:55:09;;;;;;;25.63;19.05;;;;;;;24.11;62.03;99326.59;5102678;28;20113;-70
2021/06/30 00:57:36;;;;;;;27.58;18.35;;;;;;;23.95;62.15;99313.75;5100989;28;20067;-70
2021/06/30 01:00:02;;;;;;;24.38;18.17;;;;;;;23.82;62.97;99322.06;5098380;28;20511;-71
2021/06/30 01:02:27;;;;;;;32.40;21.33;;;;;;;23.64;63.02;99327.25;5102819;27;20024;-70
2021/06/30 01:04:53;;;;;;;22.17;18.00;;;;;;;23.56;62.99;99326.53;5101819;28;20029;-70
2021/06/30 01:07:19;;;;;;;27.42;18.08;;;;;;;23.46;63.45;99328.25;5108675;28;20477;-71
2021/06/30 01:09:45;;;;;;;27.15;18.20;;;;;;;23.57;63.37;99336.72;5113136;28;20035;-71
2021/06/30 01:12:10;;;;;;;24.13;17.27;;;;;;;23.49;63.42;99338.03;5110663;27;20055;-70
2021/06/30 01:14:36;;;;;;;28.83;18.10;;;;;;;23.45;63.42;99348.69;5111501;27;20038;-71
2021/06/30 01:17:05;;;;;;;30.67;19.05;;;;;;;23.32;64.00;99342.72;5107288;28;20031;-71
2021/06/30 01:19:31;;;;;;;22.88;17.77;;;;;;;23.44;63.73;99339.31;5105669;28;20054;-70
2021/06/30 01:21:57;;;;;;;21.67;17.20;;;;;;;23.49;63.51;99344.56;5102875;28;20028;-70
2021/06/30 01:24:24;;;;;;;29.13;18.58;;;;;;;23.52;63.20;99342.88;5100143;28;20039;-71
2021/06/30 01:26:50;;;;;;;30.02;20.10;;;;;;;23.24;64.31;99348.50;5105283;27;20024;-71
2021/06/30 01:29:16;;;;;;;28.58;18.67;;;;;;;23.21;64.62;99348.53;5094718;28;20497;-70
2021/06/30 01:31:42;;;;;;;26.92;19.23;;;;;;;23.37;64.07;99350.81;5096257;28;20031;-71
2021/06/30 01:34:10;;;;;;;19.50;17.50;;;;;;;23.31;64.08;99344.78;5090983;28;20031;-71
2021/06/30 01:36:50;;;;;;;22.38;18.83;;;;;;;23.28;64.07;99346.44;5107516;28;20054;-70
2021/06/30 01:39:19;;;;;;;20.15;17.55;;;;;;;23.48;63.39;99350.69;5107230;28;20024;-70
2021/06/30 01:41:45;;;;;;;21.92;19.00;;;;;;;23.51;63.04;99352.66;5110306;28;20069;-70
2021/06/30 01:44:11;;;;;;;26.50;18.83;;;;;;;23.38;63.61;99356.09;5109959;28;20582;-70
2021/06/30 01:46:37;;;;;;;23.88;18.70;;;;;;;23.45;63.00;99360.91;5112041;28;20114;-70
2021/06/30 01:49:04;;;;;;;22.00;18.45;;;;;;;23.40;63.18;99359.31;5112049;28;20405;-70
2021/06/30 01:51:29;;;;;;;24.25;18.05;;;;;;;23.45;62.73;99366.59;5112084;28;20031;-71
2021/06/30 01:53:57;;;;;;;26.42;18.13;;;;;;;23.28;63.16;99372.09;5109330;28;20058;-70
2021/06/30 01:56:24;;;;;;;28.63;19.13;;;;;;;23.22;63.19;99364.41;5111944;28;20028;-70
2021/06/30 01:59:05;;;;;;;24.83;18.23;;;;;;;23.05;63.60;99372.75;5110657;28;20024;-71
2021/06/30 02:01:31;;;;;;;24.50;18.10;;;;;;;23.03;63.28;99366.63;5107689;28;20115;-71
2021/06/30 02:03:58;;;;;;;27.85;18.25;;;;;;;22.95;63.08;99373.66;5106837;28;20084;-70
2021/06/30 02:06:24;;;;;;;26.25;17.50;;;;;;;22.81;63.69;99369.72;5104758;28;20535;-70
2021/06/30 02:08:52;;;;;;;24.17;18.70;;;;;;;23.05;62.89;99377.63;5097111;28;20032;-70
2021/06/30 02:11:17;;;;;;;23.02;17.60;;;;;;;23.09;62.65;99373.50;5097843;27;20036;-70
2021/06/30 02:13:43;;;;;;;20.88;16.38;;;;;;;23.09;63.05;99379.22;5091555;28;20028;-70
2021/06/30 02:16:09;;;;;;;20.88;16.52;;;;;;;23.10;62.81;99374.31;5110446;28;20034;-71
2021/06/30 02:18:34;;;;;;;21.92;17.50;;;;;;;23.24;62.13;99379.06;5111531;28;20036;-70
2021/06/30 02:21:00;;;;;;;23.20;16.52;;;;;;;23.01;62.74;99380.50;5105601;28;20469;-71
2021/06/30 02:23:25;;;;;;;37.58;17.65;;;;;;;22.77;63.45;99386.03;5095091;28;20474;-71
2021/06/30 02:25:51;;;;;;;32.13;18.23;;;;;;;22.83;63.57;99386.38;5094151;28;20485;-70
2021/06/30 02:28:16;;;;;;;24.83;18.13;;;;;;;22.78;63.73;99389.69;5089136;28;20113;-70
2021/06/30 02:30:42;;;;;;;23.42;17.40;;;;;;;22.65;64.40;99380.84;5107553;28;20073;-70
2021/06/30 02:33:07;;;;;;;24.13;16.63;;;;;;;22.50;64.77;99383.00;5096056;28;20036;-70
2021/06/30 02:35:33;;;;;;;27.20;16.98;;;;;;;22.78;63.93;99386.84;5106839;28;20398;-70
2021/06/30 02:37:59;;;;;;;25.83;17.95;;;;;;;22.78;63.94;99384.00;5104427;27;20047;-70
2021/06/30 02:40:26;;;;;;;24.45;17.20;;;;;;;22.68;64.38;99391.41;5100300;28;20024;-70
2021/06/30 02:42:53;;;;;;;23.60;17.50;;;;;;;22.47;65.17;99400.91;5101735;28;20561;-71
2021/06/30 02:45:20;;;;;;;26.98;18.05;;;;;;;22.68;64.34;99394.25;5093144;28;20031;-70
2021/06/30 02:47:46;;;;;;;30.42;16.48;;;;;;;22.75;64.26;99394.19;5096861;28;20194;-70
2021/06/30 02:50:15;;;;;;;18.77;15.98;;;;;;;22.57;64.74;99400.03;5102788;28;20042;-70
2021/06/30 02:52:42;;;;;;;22.67;18.67;;;;;;;22.40;65.44;99396.06;5098249;28;20020;-70
2021/06/30 02:55:09;;;;;;;26.75;18.67;;;;;;;22.26;66.32;99403.50;5096645;28;20032;-70
2021/06/30 02:57:35;;;;;;;20.88;17.98;;;;;;;22.15;66.51;99406.41;5099865;28;20028;-71
2021/06/30 03:00:00;;;;;;;25.65;19.02;;;;;;;22.16;66.52;99399.50;5109288;28;20382;-71
2021/06/30 03:02:26;;;;;;;26.80;18.95;;;;;;;22.17;66.63;99411.69;5106533;28;20016;-70
2021/06/30 03:04:52;;;;;;;25.80;18.40;;;;;;;22.20;66.51;99410.84;5106832;28;20035;-70
2021/06/30 03:07:17;;;;;;;30.27;18.65;;;;;;;22.26;66.29;99409.19;5104328;28;20045;-71
2021/06/30 03:09:43;;;;;;;21.60;16.85;;;;;;;22.22;66.22;99411.25;5117746;27;20035;-71
2021/06/30 03:12:08;;;;;;;29.30;18.92;;;;;;;22.19;66.47;99409.22;5127736;28;20031;-70
2021/06/30 03:14:34;;;;;;;25.83;18.67;;;;;;;22.22;66.44;99418.97;5116783;28;20028;-70
2021/06/30 03:17:00;;;;;;;21.10;17.98;;;;;;;21.90;67.67;99414.25;5108872;28;20023;-71
2021/06/30 03:19:25;;;;;;;26.25;18.58;;;;;;;21.75;68.25;99420.03;5111973;28;20531;-70
2021/06/30 03:21:51;;;;;;;27.48;19.75;;;;;;;21.74;68.69;99422.06;5113491;28;20019;-71
2021/06/30 03:24:16;;;;;;;22.10;18.88;;;;;;;21.78;68.62;99424.09;5106242;28;20024;-69
2021/06/30 03:26:42;;;;;;;22.88;18.27;;;;;;;21.74;68.78;99422.06;5097090;28;20047;-72
2021/06/30 03:29:07;;;;;;;20.50;17.83;;;;;;;21.69;69.04;99416.00;5095707;28;20036;-71
2021/06/30 03:31:33;;;;;;;22.85;19.50;;;;;;;21.70;69.25;99417.63;5096962;28;20031;-71
2021/06/30 03:34:00;;;;;;;32.55;21.38;;;;;;;21.73;69.10;99419.63;5103259;27;20031;-71
2021/06/30 03:36:26;;;;;;;25.10;20.33;;;;;;;21.82;68.96;99419.19;5106852;27;20123;-70
2021/06/30 03:38:51;;;;;;;24.23;20.50;;;;;;;21.99;68.41;99421.16;5096790;28;20115;-69
2021/06/30 03:41:17;;;;;;;31.15;19.85;;;;;;;22.02;68.45;99423.16;5091163;28;20024;-70
2021/06/30 03:43:42;;;;;;;27.13;20.05;;;;;;;21.84;69.04;99420.41;5096759;28;20493;-69
2021/06/30 03:46:09;;;;;;;24.38;20.25;;;;;;;21.95;68.78;99425.22;5093840;28;20029;-69
2021/06/30 03:48:35;;;;;;;24.23;21.73;;;;;;;21.98;68.59;99430.91;5095404;28;20054;-69
2021/06/30 03:51:00;;;;;;;28.98;20.30;;;;;;;21.94;68.97;99432.94;5097268;27;20094;-70
2021/06/30 03:53:26;;;;;;;30.77;21.73;;;;;;;21.85;69.56;99426.91;5092513;28;20040;-70
2021/06/30 03:55:51;;;;;;;26.05;21.88;;;;;;;21.92;69.55;99432.56;5093669;28;20021;-69
2021/06/30 03:58:17;;;;;;;30.48;23.13;;;;;;;21.88;70.10;99432.56;5094429;28;20076;-69
2021/06/30 04:00:42;;;;;;;24.58;21.80;;;;;;;21.77;70.68;99433.84;5098196;28;20035;-69
2021/06/30 04:03:07;;;;;;;29.35;22.48;;;;;;;21.96;70.18;99436.22;5093314;28;20501;-69
2021/06/30 04:05:33;;;;;;;34.00;22.70;;;;;;;22.20;69.55;99445.03;5095113;28;20020;-70
2021/06/30 04:07:58;;;;;;;28.90;21.52;;;;;;;22.20;69.72;99438.53;5100215;28;20019;-71
2021/06/30 04:10:24;;;;;;;29.70;21.67;;;;;;;22.08;70.36;99434.09;5110182;27;20024;-71
2021/06/30 04:12:49;;;;;;;27.52;21.80;;;;;;;22.00;70.41;99428.47;5100091;28;20035;-70
2021/06/30 04:15:15;;;;;;;32.63;21.95;;;;;;;22.27;69.66;99439.28;5104975;28;20031;-70
2021/06/30 04:17:40;;;;;;;23.45;20.88;;;;;;;22.35;69.08;99433.56;5113953;28;20024;-70
2021/06/30 04:20:09;;;;;;;24.23;21.52;;;;;;;22.35;69.84;99428.66;5114195;28;20397;-71
2021/06/30 04:22:36;;;;;;;27.52;22.70;;;;;;;22.38;70.02;99432.72;5112558;28;20168;-70
2021/06/30 04:25:04;;;;;;;26.20;22.13;;;;;;;22.40;70.13;99433.09;5113965;28;20032;-71
2021/06/30 04:27:29;;;;;;;36.15;21.60;;;;;;;22.61;69.24;99429.31;5113619;28;20081;-71
2021/06/30 04:29:55;;;;;;;26.25;21.50;;;;;;;22.67;69.63;99430.50;5113475;28;20120;-70
2021/06/30 04:32:20;;;;;;;28.88;22.48;;;;;;;22.65;69.36;99435.00;5112430;28;20027;-71
2021/06/30 04:34:46;;;;;;;30.55;20.98;;;;;;;22.82;68.77;99433.22;5112024;28;20096;-70
2021/06/30 04:37:11;;;;;;;26.30;19.55;;;;;;;22.83;68.63;99440.56;5113461;28;20408;-70
2021/06/30 04:39:37;;;;;;;22.52;20.20;;;;;;;22.83;68.74;99432.81;5112490;28;20639;-70
2021/06/30 04:42:02;;;;;;;22.25;19.58;;;;;;;22.77;68.43;99431.63;5112136;28;20016;-70
2021/06/30 04:44:28;;;;;;;21.20;18.90;;;;;;;22.60;68.67;99441.16;5113798;28;20031;-70
2021/06/30 04:46:53;;;;;;;23.20;20.75;;;;;;;22.70;68.88;99434.56;5113396;28;20481;-70
2021/06/30 04:49:19;;;;;;;22.05;19.75;;;;;;;22.74;69.10;99429.63;5112104;28;20443;-70
2021/06/30 04:51:45;;;;;;;22.50;20.10;;;;;;;22.89;68.50;99432.34;5113395;28;20024;-70
2021/06/30 04:54:11;;;;;;;23.35;18.55;;;;;;;22.96;67.81;99438.00;5111880;28;20143;-70
2021/06/30 04:56:41;;;;;;;38.28;21.35;;;;;;;23.03;68.04;99431.44;5113204;28;20103;-70
2021/06/30 04:59:07;;;;;;;28.20;20.52;;;;;;;23.13;67.69;99431.31;5113244;28;20031;-70
2021/06/30 05:01:33;;;;;;;28.33;18.00;;;;;;;23.20;65.96;99443.91;5113129;28;20054;-71
2021/06/30 05:03:58;;;;;;;29.98;16.45;;;;;;;23.23;65.95;99443.03;5113237;28;20027;-70
2021/06/30 05:06:25;;;;;;;25.42;16.38;;;;;;;23.44;64.79;99441.25;5113018;28;20101;-70
2021/06/30 05:08:50;;;;;;;20.02;14.88;;;;;;;23.32;64.35;99437.69;5112203;28;20035;-71
2021/06/30 05:11:16;;;;;;;25.55;16.13;;;;;;;23.32;65.27;99437.69;5099774;28;20176;-70
2021/06/30 05:13:41;;;;;;;22.13;16.40;;;;;;;23.40;64.64;99430.66;5102580;28;20485;-70
2021/06/30 05:16:07;;;;;;;19.20;15.45;;;;;;;23.39;65.22;99437.59;5111162;28;20114;-70
2021/06/30 05:18:33;;;;;;;16.65;14.43;;;;;;;23.48;64.50;99433.44;5109571;28;20481;-70
2021/06/30 05:20:58;;;;;;;18.60;15.38;;;;;;;23.57;64.15;99430.91;5109465;28;20046;-70
2021/06/30 05:23:24;;;;;;;19.70;15.85;;;;;;;23.72;63.67;99442.13;5112443;28;20024;-70
2021/06/30 05:25:49;;;;;;;23.27;14.80;;;;;;;23.81;62.79;99439.59;5112777;28;20471;-70
2021/06/30 05:28:15;;;;;;;21.50;15.65;;;;;;;23.70;63.29;99437.66;5112417;28;20458;-70
2021/06/30 05:30:40;;;;;;;17.58;15.10;;;;;;;23.66;62.83;99438.94;5111256;28;20147;-70
2021/06/30 05:33:06;;;;;;;19.55;16.30;;;;;;;23.63;63.52;99443.44;5112654;28;20020;-70
2021/06/30 05:35:32;;;;;;;21.65;14.73;;;;;;;23.66;63.56;99434.06;5110847;28;20433;-70
2021/06/30 05:37:57;;;;;;;25.00;15.13;;;;;;;23.84;63.54;99441.56;5112395;28;20031;-70
2021/06/30 05:40:23;;;;;;;21.42;14.82;;;;;;;23.87;62.29;99443.56;5112225;28;20016;-71
2021/06/30 05:42:48;;;;;;;17.88;15.02;;;;;;;23.86;62.94;99441.16;5111681;28;20451;-70
2021/06/30 05:45:17;;;;;;;24.63;15.52;;;;;;;23.98;62.99;99444.25;5112202;28;20447;-70
2021/06/30 05:47:46;;;;;;;20.05;15.30;;;;;;;23.92;63.05;99439.44;5112284;28;20447;-71
2021/06/30 05:50:13;;;;;;;25.00;16.17;;;;;;;24.20;62.52;99437.47;5112531;28;20088;-70
2021/06/30 05:52:39;;;;;;;23.80;15.30;;;;;;;24.42;61.44;99446.53;5110931;28;20028;-70
2021/06/30 05:55:06;;;;;;;17.13;14.73;;;;;;;24.51;60.93;99446.00;5110657;28;20035;-71
2021/06/30 05:57:32;;;;;;;20.30;15.63;;;;;;;24.45;61.50;99442.81;5111803;28;20110;-70
2021/06/30 05:59:57;;;;;;;24.05;15.50;;;;;;;24.52;60.91;99445.56;5112437;28;20135;-71
2021/06/30 06:02:23;;;;;;;17.67;15.52;;;;;;;24.51;61.63;99441.09;5111786;28;20035;-71
2021/06/30 06:04:48;;;;;;;20.35;15.05;;;;;;;24.79;59.71;99441.91;5110741;28;20106;-70
2021/06/30 06:07:14;;;;;;;22.20;14.20;;;;;;;24.94;59.62;99444.53;5110525;28;20073;-70
2021/06/30 06:09:39;;;;;;;26.52;16.80;;;;;;;24.99;58.99;99437.50;5111977;28;20074;-71
2021/06/30 06:12:05;;;;;;;25.58;16.55;;;;;;;25.01;60.61;99440.72;5110525;28;20027;-70
2021/06/30 06:14:31;;;;;;;28.25;16.80;;;;;;;25.15;59.03;99431.88;5111667;28;20036;-71
2021/06/30 06:16:56;;;;;;;21.98;16.48;;;;;;;25.25;58.52;99441.53;5111785;28;20501;-71
2021/06/30 06:19:23;;;;;;;22.42;16.95;;;;;;;25.27;58.60;99444.75;5111844;28;20071;-70
2021/06/30 06:21:48;;;;;;;16.85;14.98;;;;;;;25.24;58.56;99437.06;5110346;28;20328;-71
2021/06/30 06:24:14;;;;;;;20.63;15.27;;;;;;;25.43;58.56;99437.50;5110229;28;20027;-71
2021/06/30 06:26:40;;;;;;;18.58;15.73;;;;;;;25.64;57.37;99434.25;5109961;28;20035;-71
2021/06/30 06:29:05;;;;;;;44.42;33.15;;;;;;;25.65;57.58;99441.59;5110109;28;20032;-71
2021/06/30 06:31:31;;;;;;;25.17;18.10;;;;;;;25.74;57.42;99437.34;5111254;28;20034;-71
2021/06/30 06:33:57;;;;;;;18.25;16.30;;;;;;;25.74;57.28;99426.69;5111620;28;20038;-70
2021/06/30 06:36:24;;;;;;;20.48;17.48;;;;;;;25.94;56.59;99425.88;5111257;28;20086;-72
2021/06/30 06:38:50;;;;;;;35.38;21.45;;;;;;;25.88;57.30;99425.59;5111317;28;20036;-71
2021/06/30 06:41:16;;;;;;;37.97;17.83;;;;;;;25.91;56.63;99424.69;5109879;28;20063;-71
2021/06/30 06:43:43;;;;;;;16.73;14.85;;;;;;;26.14;56.14;99425.84;5111199;28;20035;-71
2021/06/30 06:46:10;;;;;;;56.20;40.13;;;;;;;26.17;56.22;99421.28;5111183;28;20039;-71
2021/06/30 06:48:36;;;;;;;19.20;15.65;;;;;;;26.20;55.45;99429.03;5111079;28;20039;-71
2021/06/30 06:51:02;;;;;;;31.08;23.70;;;;;;;26.13;56.47;99424.25;5111244;28;20032;-72
2021/06/30 06:53:28;;;;;;;18.25;16.15;;;;;;;26.41;55.07;99421.19;5110928;28;20032;-71
2021/06/30 06:55:54;;;;;;;25.30;15.75;;;;;;;26.43;54.55;99422.38;5110980;28;20058;-69
2021/06/30 06:58:19;;;;;;;18.17;14.18;;;;;;;26.66;55.83;99419.78;5109606;28;20024;-71
2021/06/30 07:00:45;;;;;;;20.88;15.13;;;;;;;26.80;54.43;99418.63;5110912;28;20023;-70
2021/06/30 07:03:10;;;;;;;27.95;17.50;;;;;;;26.93;54.36;99415.84;5111050;28;20054;-69
2021/06/30 07:05:36;;;;;;;20.15;16.15;;;;;;;26.91;53.69;99414.25;5110617;28;20409;-67
2021/06/30 07:08:01;;;;;;;25.25;14.60;;;;;;;27.01;53.91;99406.59;5109637;28;20421;-68
2021/06/30 07:10:26;;;;;;;15.88;14.25;;;;;;;27.18;54.49;99395.13;5110650;28;20024;-70
2021/06/30 07:12:52;;;;;;;74.28;44.65;;;;;;;27.48;53.08;99398.78;5110758;28;20024;-69
2021/06/30 07:15:17;;;;;;;19.17;15.07;;;;;;;27.49;52.38;99394.66;5110696;28;20024;-72
2021/06/30 07:17:43;;;;;;;24.48;16.17;;;;;;;27.55;52.38;99386.31;5109654;28;20544;-72
2021/06/30 07:20:09;;;;;;;24.35;14.57;;;;;;;27.66;51.71;99394.63;5111082;28;20031;-71
2021/06/30 07:22:34;;;;;;;19.40;14.00;;;;;;;27.69;51.03;99396.59;5109441;28;20032;-71
2021/06/30 07:25:00;;;;;;;26.63;16.17;;;;;;;27.77;51.64;99400.88;5110905;28;20031;-71
2021/06/30 07:27:26;;;;;;;19.23;13.68;;;;;;;27.86;51.49;99398.09;5109538;28;20028;-71
2021/06/30 07:29:52;;;;;;;14.48;12.95;;;;;;;27.79;51.32;99397.53;5110922;28;20592;-71
2021/06/30 07:32:17;;;;;;;61.70;28.42;;;;;;;27.75;51.72;99394.75;5110723;28;20111;-69
2021/06/30 07:34:43;;;;;;;18.50;12.88;;;;;;;27.74;51.11;99387.41;5116901;28;20027;-68
2021/06/30 07:37:08;;;;;;;36.53;19.45;;;;;;;27.73;51.93;99385.78;5100202;28;20032;-71
2021/06/30 07:39:35;;;;;;;19.38;13.55;;;;;;;27.93;52.87;99387.66;5109819;28;20472;-70
2021/06/30 07:42:01;;;;;;;18.33;13.07;;;;;;;28.20;51.50;99384.41;5102124;28;20107;-74
2021/06/30 07:44:27;;;;;;;17.88;13.10;;;;;;;28.31;52.06;99386.91;5102493;28;20024;-75
2021/06/30 07:46:53;;;;;;;17.23;12.88;;;;;;;28.48;49.93;99378.16;5103894;28;20108;-75
2021/06/30 07:49:18;;;;;;;17.65;12.80;;;;;;;28.48;51.00;99383.91;5100153;28;20495;-71
2021/06/30 07:51:44;;;;;;;12.70;11.45;;;;;;;28.56;51.43;99382.41;5104847;28;20032;-75
2021/06/30 07:54:09;;;;;;;14.57;11.85;;;;;;;28.80;50.41;99377.09;5098605;28;20039;-72
2021/06/30 07:56:36;;;;;;;15.00;12.88;;;;;;;28.92;50.39;99378.34;5088545;28;20055;-76
2021/06/30 07:59:06;;;;;;;17.90;12.65;;;;;;;28.93;48.42;99374.19;5098885;28;20078;-73
2021/06/30 08:01:32;;;;;;;16.10;13.02;;;;;;;29.00;49.66;99370.28;5102917;28;20090;-71
2021/06/30 08:03:57;;;;;;;23.45;13.25;;;;;;;29.01;49.10;99371.88;5103171;28;20148;-71
2021/06/30 08:06:23;;;;;;;18.40;13.65;;;;;;;29.10;48.58;99365.41;5103085;28;20091;-71
2021/06/30 08:08:49;;;;;;;13.40;12.07;;;;;;;29.12;50.30;99366.53;5108440;28;20031;-74
2021/06/30 08:11:16;;;;;;;13.52;12.07;;;;;;;29.25;48.95;99362.81;5102829;28;20118;-76
2021/06/30 08:13:41;;;;;;;56.55;26.55;;;;;;;29.26;49.70;99355.78;5105383;28;20812;-71
2021/06/30 08:16:07;;;;;;;14.65;13.10;;;;;;;29.35;48.67;99355.06;5108460;28;20032;-72
2021/06/30 08:18:32;;;;;;;17.98;13.98;;;;;;;29.18;49.83;99352.34;5112350;28;20031;-77
2021/06/30 08:20:58;;;;;;;16.75;13.60;;;;;;;29.17;48.72;99350.75;5112783;28;20421;-78
2021/06/30 08:23:23;;;;;;;13.95;12.38;;;;;;;29.22;50.07;99347.28;5112333;28;20020;-76
2021/06/30 08:25:48;;;;;;;16.60;12.98;;;;;;;29.38;49.22;99351.25;5113753;28;20031;-73
2021/06/30 08:28:18;;;;;;;20.70;16.10;;;;;;;29.15;49.84;99353.28;5112176;28;20152;-72
2021/06/30 08:30:43;;;;;;;38.30;21.33;;;;;;;29.33;50.30;99341.13;5112516;28;20035;-73
2021/06/30 08:33:08;;;;;;;15.82;12.98;;;;;;;29.37;50.20;99341.78;5112581;28;20031;-75
2021/06/30 08:35:34;;;;;;;21.13;14.45;;;;;;;29.61;48.77;99337.66;5112064;28;20056;-73
2021/06/30 08:38:00;;;;;;;17.77;14.02;;;;;;;29.61;48.86;99340.53;5113781;28;20035;-74
2021/06/30 08:40:25;;;;;;;14.90;12.88;;;;;;;29.93;48.68;99329.84;5113420;28;20023;-74
2021/06/30 08:42:51;;;;;;;17.27;12.30;;;;;;;30.10;47.88;99339.06;5113797;28;20031;-75
2021/06/30 08:45:16;;;;;;;22.63;13.10;;;;;;;30.20;47.76;99331.25;5113359;28;20515;-77
2021/06/30 08:47:42;;;;;;;16.63;12.55;;;;;;;30.34;47.62;99335.63;5113534;28;20033;-77
2021/06/30 08:50:10;;;;;;;15.85;12.48;;;;;;;30.35;47.80;99332.28;5113793;28;20464;-76
2021/06/30 08:52:37;;;;;;;13.52;12.20;;;;;;;30.44;46.23;99325.72;5111845;28;20031;-77
2021/06/30 08:55:07;;;;;;;17.17;12.23;;;;;;;30.51;46.83;99321.72;5113606;28;20059;-76
2021/06/30 08:57:34;;;;;;;14.90;12.50;;;;;;;30.54;45.95;99320.78;5111701;28;20036;-76
2021/06/30 09:00:00;;;;;;;14.57;12.02;;;;;;;30.60;45.61;99310.22;5113534;28;20028;-74
2021/06/30 09:02:25;;;;;;;16.10;12.32;;;;;;;30.77;47.28;99304.16;5111623;28;20176;-73
2021/06/30 09:05:08;;;;;;;20.05;13.43;;;;;;;30.85;47.01;99311.22;5113438;28;20031;-74
2021/06/30 09:07:34;;;;;;;19.75;12.13;;;;;;;31.12;46.37;99300.97;5112916;28;20030;-75
2021/06/30 09:09:59;;;;;;;17.55;12.35;;;;;;;31.32;44.46;99297.63;5113406;27;20028;-74
2021/06/30 09:12:39;;;;;;;16.45;12.55;;;;;;;31.30;46.34;99299.38;5111514;28;20031;-75
2021/06/30 09:15:19;;;;;;;16.55;12.02;;;;;;;31.43;45.58;99297.13;5113229;28;20022;-76
2021/06/30 09:17:46;;;;;;;14.27;12.02;;;;;;;31.34;45.61;99289.28;5111666;28;20042;-75
2021/06/30 09:20:12;;;;;;;14.85;12.35;;;;;;;31.57;46.09;99289.88;5111453;28;20035;-73
2021/06/30 09:22:50;;;;;;;13.10;11.23;;;;;;;31.72;45.81;99286.28;5112842;28;20027;-75
2021/06/30 09:25:39;;;;;;;14.73;12.85;;;;;;;31.64;45.54;99286.63;5111139;28;20040;-77
2021/06/30 09:28:13;;;;;;;19.63;13.27;;;;;;;31.76;45.48;99290.59;5112759;28;20031;-76
2021/06/30 09:30:55;;;;;;;14.82;13.32;;;;;;;32.16;42.89;99280.03;5099536;28;20038;-73
2021/06/30 09:33:20;;;;;;;14.95;11.68;;;;;;;32.25;43.27;99270.50;5110946;28;20043;-75
2021/06/30 09:35:46;;;;;;;15.65;11.45;;;;;;;32.46;40.89;99273.59;5103652;28;20071;-73
2021/06/30 09:38:31;;;;;;;15.38;13.07;;;;;;;32.51;42.32;99275.81;5094909;28;20024;-74
2021/06/30 09:40:58;;;;;;;17.15;12.32;;;;;;;32.60;41.84;99266.28;5117745;27;20026;-74
2021/06/30 09:43:27;;;;;;;15.10;12.77;;;;;;;32.59;41.47;99253.91;5096199;28;20021;-76
2021/06/30 09:45:53;;;;;;;19.55;12.43;;;;;;;32.55;41.84;99252.50;5093772;28;20030;-74
2021/06/30 09:48:33;;;;;;;13.48;12.18;;;;;;;32.55;42.63;99246.72;5093959;28;20382;-75
2021/06/30 09:51:01;;;;;;;22.08;13.43;;;;;;;32.67;40.90;99254.31;5092361;28;20495;-75
2021/06/30 09:53:45;;;;;;;18.20;13.45;;;;;;;32.62;42.09;99235.53;5094189;28;20035;-74
2021/06/30 09:59:16;;;;;;;14.98;13.15;;;;;;;33.00;42.04;99241.03;5103756;27;20047;-72
2021/06/30 10:01:43;;;;;;;18.85;12.90;;;;;;;32.94;41.70;99235.16;5125238;27;20031;-72
2021/06/30 10:04:11;;;;;;;17.23;14.30;;;;;;;32.85;41.71;99232.28;5108330;27;20168;-71
2021/06/30 10:06:37;;;;;;;17.10;13.02;;;;;;;33.05;40.76;99225.84;5090742;27;20045;-73
2021/06/30 10:09:05;;;;;;;17.70;13.70;;;;;;;33.27;41.68;99219.69;5107398;27;20043;-74
2021/06/30 10:11:33;;;;;;;71.75;17.08;;;;;;;33.54;41.04;99223.59;5102907;28;20531;-72
2021/06/30 10:13:59;;;;;;;14.73;13.23;;;;;;;33.72;41.92;99221.75;5110168;28;20473;-73
2021/06/30 10:16:26;;;;;;;21.75;14.25;;;;;;;33.88;40.13;99221.25;5111554;28;20118;-73
2021/06/30 10:18:57;;;;;;;30.35;13.52;;;;;;;34.00;40.24;99225.13;5094405;28;20184;-73
2021/06/30 10:21:26;;;;;;;18.98;14.43;;;;;;;33.91;39.08;99210.75;5089873;28;20036;-73
2021/06/30 10:23:52;;;;;;;16.50;14.07;;;;;;;33.76;40.13;99219.47;5107243;28;20032;-74
2021/06/30 10:26:19;;;;;;;20.25;13.77;;;;;;;33.91;40.11;99209.94;5111362;27;20038;-74
2021/06/30 10:28:57;;;;;;;16.88;13.82;;;;;;;34.08;39.55;99205.19;5109401;28;20046;-73
2021/06/30 10:31:23;;;;;;;18.50;13.13;;;;;;;34.14;38.32;99196.56;5111354;28;20169;-74
2021/06/30 10:34:03;;;;;;;16.40;14.50;;;;;;;34.12;39.54;99204.97;5111166;28;20114;-74
2021/06/30 10:36:45;;;;;;;19.25;12.75;;;;;;;34.06;38.94;99199.09;5090875;28;20064;-74
2021/06/30 10:39:12;;;;;;;17.60;13.38;;;;;;;34.32;39.26;99197.59;5090921;28;20043;-74
2021/06/30 10:41:55;;;;;;;14.90;13.23;;;;;;;34.52;38.12;99191.03;5111063;28;20062;-72
2021/06/30 10:44:26;;;;;;;19.25;14.18;;;;;;;34.61;38.64;99190.88;5111130;28;20038;-73
2021/06/30 10:46:53;;;;;;;18.35;12.85;;;;;;;34.69;37.62;99185.41;5111048;28;20032;-73
2021/06/30 10:49:25;;;;;;;16.90;13.45;;;;;;;34.73;37.60;99191.78;5109435;28;20085;-74
2021/06/30 10:51:53;;;;;;;21.55;13.93;;;;;;;34.83;37.58;99189.53;5111031;28;20027;-73
2021/06/30 10:54:37;;;;;;;19.63;14.35;;;;;;;34.95;37.05;99196.25;5111035;28;20490;-73
2021/06/30 10:57:26;;;;;;;16.13;13.43;;;;;;;35.10;36.61;99182.44;5111454;28;20039;-73
2021/06/30 11:00:02;;;;;;;16.55;14.95;;;;;;;35.14;35.97;99183.00;5109555;28;20024;-73
2021/06/30 11:02:32;;;;;;;17.75;14.30;;;;;;;35.05;36.99;99182.38;5110773;28;20036;-73
2021/06/30 11:05:18;;;;;;;15.55;13.27;;;;;;;34.92;36.43;99169.00;5111084;28;20018;-73
2021/06/30 11:07:45;;;;;;;18.15;13.45;;;;;;;35.07;35.33;99163.13;5095080;28;20410;-73
2021/06/30 11:10:16;;;;;;;25.55;13.52;;;;;;;35.07;35.94;99156.53;5094971;28;20488;-73
2021/06/30 11:12:51;;;;;;;17.05;13.73;;;;;;;35.25;35.31;99153.25;5110820;28;20034;-73
2021/06/30 11:15:35;;;;;;;28.42;14.77;;;;;;;35.37;35.65;99150.44;5109035;28;20486;-73
2021/06/30 11:18:21;;;;;;;15.88;14.10;;;;;;;35.36;35.05;99132.22;5110689;28;20028;-73
2021/06/30 11:20:52;;;;;;;19.60;15.48;;;;;;;35.53;35.31;99137.34;5110578;28;20032;-73